James Turecamo — WDC7565 — position and weather

sailwx.info

Track history (hours):
 
Tides and Currents Weather Stations Pressure Air Temp Water Temp Dewpoint Dewpoint Depression Visibility Wind Speed Wind Dir Waves Ship Positions

James Turecamo

Owner: Moran Towing Corporation, New Canaan, CT. More information available from US FCC via Universal Licensing System and Coast Guard Vessel Documentation Center.

Last reported at 2016-Jul-26 19:05 UTC. Time now 2016-Jul-26 19:53 UTC.
Position N 40°47' W 073°55'.

Length 27 m; draft 4.5 m.

Type: Tug. MMSI: 367073380.

Date/timePositionNaut miles runAvg speedWind from/ knotsBaromVisibWave heightAir tempDewpointWater temp
2016-Jul-26 19:05N 40°47' W 073°55'5 9.8
2016-Jul-26 18:33N 40°43' W 073°59'8 2.1
2016-Jul-26 14:33N 40°39' W 074°08'7 3.4
2016-Jul-26 12:30N 40°34' W 074°14'5 2.6
2016-Jul-26 10:33N 40°38' W 074°12'3 0.3
2016-Jul-26 01:27N 40°38' W 074°08'6 6.9
2016-Jul-26 00:34N 40°41' W 074°01'7 6.8
2016-Jul-25 23:32N 40°39' W 074°09'3 3.1
2016-Jul-25 22:34N 40°42' W 074°09'3 2.5
2016-Jul-25 21:11N 40°38' W 074°08'0 0.0
2016-Jul-25 20:18N 40°38' W 074°08'0 0.0
2016-Jul-25 19:33N 40°38' W 074°08'0 0.0
2016-Jul-25 18:24N 40°38' W 074°08'0 0.0
2016-Jul-25 17:33N 40°38' W 074°08'0 0.0
2016-Jul-25 16:34N 40°38' W 074°08'0 0.0
2016-Jul-25 15:27N 40°38' W 074°08'0 0.0
2016-Jul-25 14:28N 40°38' W 074°08'0 0.0
2016-Jul-25 11:24N 40°38' W 074°08'0 0.0
2016-Jul-25 10:26N 40°38' W 074°08'5 6.3
2016-Jul-25 09:33N 40°44' W 074°06'5 2.6
2016-Jul-25 07:30N 40°48' W 074°03'4 3.9
2016-Jul-25 06:33N 40°45' W 074°06'1 1.3
2016-Jul-25 05:33N 40°44' W 074°06'2 2.0
2016-Jul-25 04:33N 40°43' W 074°07'0 0.1
2016-Jul-25 03:33N 40°43' W 074°07'0 0.0
2016-Jul-25 02:30N 40°43' W 074°07'4 4.0
2016-Jul-25 01:33N 40°39' W 074°09'3 3.1
2016-Jul-25 00:34N 40°40' W 074°05'2 2.2
2016-Jul-24 23:33N 40°39' W 074°07'0 0.0
2016-Jul-24 11:32N 40°39' W 074°07'0 0.3
2016-Jul-24 10:33N 40°39' W 074°07'2 0.6
2016-Jul-24 07:33N 40°39' W 074°05'9 8.7
2016-Jul-24 06:33N 40°46' W 073°57'2 2.0
2016-Jul-24 05:33N 40°44' W 073°58'3 3.3
2016-Jul-24 04:34N 40°41' W 074°01'6 0.8
2016-Jul-23 21:27N 40°39' W 074°08'2 2.4
2016-Jul-23 20:34N 40°39' W 074°05'1 0.3
2016-Jul-23 16:33N 40°39' W 074°06'2 1.8
2016-Jul-23 15:33N 40°40' W 074°05'2 1.5
2016-Jul-23 14:34N 40°39' W 074°06'2 1.6
2016-Jul-23 13:29N 40°38' W 074°08'0 0.0
2016-Jul-23 12:33N 40°38' W 074°08'0 0.0
2016-Jul-23 11:34N 40°38' W 074°08'0 0.0
2016-Jul-23 10:33N 40°38' W 074°08'0 0.0
2016-Jul-23 09:34N 40°38' W 074°08'0 0.0
2016-Jul-23 08:33N 40°38' W 074°08'0 0.0
2016-Jul-23 07:34N 40°38' W 074°08'0 0.1
2016-Jul-23 02:33N 40°39' W 074°08'3 3.0
2016-Jul-23 01:34N 40°39' W 074°04'0 0.4
2016-Jul-23 00:34N 40°39' W 074°05'2 2.4
2016-Jul-22 23:34N 40°38' W 074°08'0 0.0
2016-Jul-22 22:33N 40°38' W 074°08'0 0.0
2016-Jul-22 21:34N 40°38' W 074°08'0 0.0
2016-Jul-22 20:34N 40°38' W 074°08'0 0.0
2016-Jul-22 14:25N 40°38' W 074°08'4 3.6
2016-Jul-22 13:16N 40°36' W 074°12'4 5.1
2016-Jul-22 12:34N 40°39' W 074°09'1 0.9
2016-Jul-22 11:25N 40°38' W 074°08'1 1.5
2016-Jul-22 10:33N 40°40' W 074°09'5 4.8
2016-Jul-22 09:34N 40°38' W 074°03'4 3.6
2016-Jul-22 08:31N 40°38' W 074°08'0 0.0
2016-Jul-22 07:34N 40°38' W 074°08'2 1.0
2016-Jul-22 05:33N 40°39' W 074°10'1 1.2
2016-Jul-22 04:33N 40°39' W 074°09'1 0.3
2016-Jul-22 01:14N 40°38' W 074°08'3 3.1
2016-Jul-22 00:08N 40°38' W 074°12'4 6.2
2016-Jul-21 23:33N 40°39' W 074°08'0 0.1
2016-Jul-21 21:16N 40°38' W 074°08'2 3.2
2016-Jul-21 20:34N 40°39' W 074°05'2 1.5
2016-Jul-21 19:04N 40°38' W 074°08'0 0.0
2016-Jul-21 17:22N 40°38' W 074°08'0 0.0
2016-Jul-21 14:33N 40°38' W 074°08'0 0.0
2016-Jul-21 13:21N 40°38' W 074°08'0 0.0
2016-Jul-21 12:09N 40°38' W 074°08'3 4.3
2016-Jul-21 11:33N 40°39' W 074°11'3 3.2
2016-Jul-21 10:34N 40°39' W 074°07'1 0.5
2016-Jul-21 09:08N 40°38' W 074°08'3 4.8
2016-Jul-21 08:34N 40°41' W 074°09'2 2.5
2016-Jul-21 07:33N 40°39' W 074°09'4 1.1
2016-Jul-21 03:34N 40°40' W 074°03'0 0.2
2016-Jul-21 02:34N 40°40' W 074°03'1 1.0
2016-Jul-21 01:34N 40°40' W 074°04'3 3.4
2016-Jul-21 00:34N 40°40' W 074°08'1 0.7
2016-Jul-20 23:34N 40°41' W 074°09'5 0.8
2016-Jul-20 16:29N 40°36' W 074°12'4 4.3
2016-Jul-20 15:32N 40°38' W 074°08'0 0.0
2016-Jul-20 14:33N 40°38' W 074°08'0 0.0
2016-Jul-20 13:33N 40°38' W 074°08'0 0.0
2016-Jul-20 12:34N 40°38' W 074°08'0 0.0
2016-Jul-20 11:34N 40°38' W 074°08'0 0.0
2016-Jul-20 10:33N 40°38' W 074°08'0 0.0
2016-Jul-20 09:34N 40°38' W 074°08'0 0.0
2016-Jul-20 08:33N 40°38' W 074°08'0 0.0
2016-Jul-20 07:34N 40°38' W 074°08'0 0.0
2016-Jul-20 06:34N 40°38' W 074°08'6 5.6
2016-Jul-20 05:34N 40°42' W 074°02'6 5.4
2016-Jul-20 04:32N 40°39' W 074°08'3 2.7
2016-Jul-20 03:33N 40°39' W 074°11'0 0.0
2016-Jul-20 02:13N 40°39' W 074°11'1 0.3
2016-Jul-19 22:32N 40°38' W 074°12'5 4.8
2016-Jul-19 21:31N 40°42' W 074°09'0 0.2
2016-Jul-19 20:23N 40°42' W 074°09'3 1.9
2016-Jul-19 18:31N 40°38' W 074°08'0 0.0
2016-Jul-19 17:31N 40°38' W 074°08'0 0.0
2016-Jul-19 16:25N 40°38' W 074°08'0 0.0
2016-Jul-19 14:14N 40°38' W 074°08'0 0.0
2016-Jul-19 09:16N 40°38' W 074°08'0 0.0
2016-Jul-19 08:28N 40°38' W 074°08'0 0.0
2016-Jul-19 07:28N 40°38' W 074°08'0 0.0
2016-Jul-19 06:10N 40°38' W 074°08'0 0.0
2016-Jul-19 04:10N 40°38' W 074°08'0 0.0
2016-Jul-19 03:28N 40°38' W 074°08'3 3.6
2016-Jul-19 02:30N 40°38' W 074°12'2 1.1
2016-Jul-19 00:24N 40°38' W 074°09'2 0.3
2016-Jul-18 17:33N 40°39' W 074°06'1 1.0
2016-Jul-18 16:33N 40°39' W 074°05'3 2.3
2016-Jul-18 15:25N 40°37' W 074°03'3 2.8
2016-Jul-18 14:31N 40°39' W 074°02'0 0.0
2016-Jul-18 13:31N 40°39' W 074°02'0 0.1
2016-Jul-18 12:33N 40°39' W 074°01'1 1.0
2016-Jul-18 11:32N 40°40' W 074°00'4 4.3
2016-Jul-18 10:33N 40°39' W 074°06'2 0.7
2016-Jul-18 08:29N 40°38' W 074°08'3 3.0
2016-Jul-18 07:21N 40°38' W 074°12'3 1.9
2016-Jul-18 05:33N 40°39' W 074°08'6 6.3
2016-Jul-18 04:33N 40°45' W 074°05'4 1.8
2016-Jul-18 02:10N 40°48' W 074°03'2 3.8
2016-Jul-18 01:33N 40°47' W 074°05'3 2.9
2016-Jul-18 00:33N 40°44' W 074°06'2 1.6
2016-Jul-17 23:22N 40°43' W 074°07'1 1.3
2016-Jul-17 22:33N 40°42' W 074°07'3 0.5
2016-Jul-17 16:29N 40°39' W 074°07'2 2.1
2016-Jul-17 15:33N 40°39' W 074°05'1 1.3
2016-Jul-17 14:28N 40°38' W 074°04'3 0.5
2016-Jul-17 08:23N 40°38' W 074°08'0 0.0
2016-Jul-17 07:29N 40°38' W 074°08'0 0.0
2016-Jul-17 06:29N 40°38' W 074°08'3 1.4
2016-Jul-17 04:06N 40°38' W 074°12'3 5.0
2016-Jul-17 03:33N 40°39' W 074°09'4 3.7
2016-Jul-17 02:22N 40°37' W 074°03'4 0.5
2016-Jul-16 19:24N 40°38' W 074°08'  
Track history (hours):
 
Tides and Currents Weather Stations Pressure Air Temp Water Temp Dewpoint Dewpoint Depression Visibility Wind Speed Wind Dir Waves Ship Positions

James Turecamo

Owner: Moran Towing Corporation, New Canaan, CT. More information available from US FCC via Universal Licensing System and Coast Guard Vessel Documentation Center.

Last reported at 2016-Jul-26 19:05 UTC. Time now 2016-Jul-26 19:53 UTC.
Position N 40°47' W 073°55'.

Length 27 m; draft 4.5 m.

Type: Tug. MMSI: 367073380.

Date/timePositionNaut miles runAvg speedWind from/ knotsBaromVisibWave heightAir tempDewpointWater temp
2016-Jul-26 19:05N 40°47' W 073°55'5 9.8
2016-Jul-26 18:33N 40°43' W 073°59'8 2.1
2016-Jul-26 14:33N 40°39' W 074°08'7 3.4
2016-Jul-26 12:30N 40°34' W 074°14'5 2.6
2016-Jul-26 10:33N 40°38' W 074°12'3 0.3
2016-Jul-26 01:27N 40°38' W 074°08'6 6.9
2016-Jul-26 00:34N 40°41' W 074°01'7 6.8
2016-Jul-25 23:32N 40°39' W 074°09'3 3.1
2016-Jul-25 22:34N 40°42' W 074°09'3 2.5
2016-Jul-25 21:11N 40°38' W 074°08'0 0.0
2016-Jul-25 20:18N 40°38' W 074°08'0 0.0
2016-Jul-25 19:33N 40°38' W 074°08'0 0.0
2016-Jul-25 18:24N 40°38' W 074°08'0 0.0
2016-Jul-25 17:33N 40°38' W 074°08'0 0.0
2016-Jul-25 16:34N 40°38' W 074°08'0 0.0
2016-Jul-25 15:27N 40°38' W 074°08'0 0.0
2016-Jul-25 14:28N 40°38' W 074°08'0 0.0
2016-Jul-25 11:24N 40°38' W 074°08'0 0.0
2016-Jul-25 10:26N 40°38' W 074°08'5 6.3
2016-Jul-25 09:33N 40°44' W 074°06'5 2.6
2016-Jul-25 07:30N 40°48' W 074°03'4 3.9
2016-Jul-25 06:33N 40°45' W 074°06'1 1.3
2016-Jul-25 05:33N 40°44' W 074°06'2 2.0
2016-Jul-25 04:33N 40°43' W 074°07'0 0.1
2016-Jul-25 03:33N 40°43' W 074°07'0 0.0
2016-Jul-25 02:30N 40°43' W 074°07'4 4.0
2016-Jul-25 01:33N 40°39' W 074°09'3 3.1
2016-Jul-25 00:34N 40°40' W 074°05'2 2.2
2016-Jul-24 23:33N 40°39' W 074°07'0 0.0
2016-Jul-24 11:32N 40°39' W 074°07'0 0.3
2016-Jul-24 10:33N 40°39' W 074°07'2 0.6
2016-Jul-24 07:33N 40°39' W 074°05'9 8.7
2016-Jul-24 06:33N 40°46' W 073°57'2 2.0
2016-Jul-24 05:33N 40°44' W 073°58'3 3.3
2016-Jul-24 04:34N 40°41' W 074°01'6 0.8
2016-Jul-23 21:27N 40°39' W 074°08'2 2.4
2016-Jul-23 20:34N 40°39' W 074°05'1 0.3
2016-Jul-23 16:33N 40°39' W 074°06'2 1.8
2016-Jul-23 15:33N 40°40' W 074°05'2 1.5
2016-Jul-23 14:34N 40°39' W 074°06'2 1.6
2016-Jul-23 13:29N 40°38' W 074°08'0 0.0
2016-Jul-23 12:33N 40°38' W 074°08'0 0.0
2016-Jul-23 11:34N 40°38' W 074°08'0 0.0
2016-Jul-23 10:33N 40°38' W 074°08'0 0.0
2016-Jul-23 09:34N 40°38' W 074°08'0 0.0
2016-Jul-23 08:33N 40°38' W 074°08'0 0.0
2016-Jul-23 07:34N 40°38' W 074°08'0 0.1
2016-Jul-23 02:33N 40°39' W 074°08'3 3.0
2016-Jul-23 01:34N 40°39' W 074°04'0 0.4
2016-Jul-23 00:34N 40°39' W 074°05'2 2.4
2016-Jul-22 23:34N 40°38' W 074°08'0 0.0
2016-Jul-22 22:33N 40°38' W 074°08'0 0.0
2016-Jul-22 21:34N 40°38' W 074°08'0 0.0
2016-Jul-22 20:34N 40°38' W 074°08'0 0.0
2016-Jul-22 14:25N 40°38' W 074°08'4 3.6
2016-Jul-22 13:16N 40°36' W 074°12'4 5.1
2016-Jul-22 12:34N 40°39' W 074°09'1 0.9
2016-Jul-22 11:25N 40°38' W 074°08'1 1.5
2016-Jul-22 10:33N 40°40' W 074°09'5 4.8
2016-Jul-22 09:34N 40°38' W 074°03'4 3.6
2016-Jul-22 08:31N 40°38' W 074°08'0 0.0
2016-Jul-22 07:34N 40°38' W 074°08'2 1.0
2016-Jul-22 05:33N 40°39' W 074°10'1 1.2
2016-Jul-22 04:33N 40°39' W 074°09'1 0.3
2016-Jul-22 01:14N 40°38' W 074°08'3 3.1
2016-Jul-22 00:08N 40°38' W 074°12'4 6.2
2016-Jul-21 23:33N 40°39' W 074°08'0 0.1
2016-Jul-21 21:16N 40°38' W 074°08'2 3.2
2016-Jul-21 20:34N 40°39' W 074°05'2 1.5
2016-Jul-21 19:04N 40°38' W 074°08'0 0.0
2016-Jul-21 17:22N 40°38' W 074°08'0 0.0
2016-Jul-21 14:33N 40°38' W 074°08'0 0.0
2016-Jul-21 13:21N 40°38' W 074°08'0 0.0
2016-Jul-21 12:09N 40°38' W 074°08'3 4.3
2016-Jul-21 11:33N 40°39' W 074°11'3 3.2
2016-Jul-21 10:34N 40°39' W 074°07'1 0.5
2016-Jul-21 09:08N 40°38' W 074°08'3 4.8
2016-Jul-21 08:34N 40°41' W 074°09'2 2.5
2016-Jul-21 07:33N 40°39' W 074°09'4 1.1
2016-Jul-21 03:34N 40°40' W 074°03'0 0.2
2016-Jul-21 02:34N 40°40' W 074°03'1 1.0
2016-Jul-21 01:34N 40°40' W 074°04'3 3.4
2016-Jul-21 00:34N 40°40' W 074°08'1 0.7
2016-Jul-20 23:34N 40°41' W 074°09'5 0.8
2016-Jul-20 16:29N 40°36' W 074°12'4 4.3
2016-Jul-20 15:32N 40°38' W 074°08'0 0.0
2016-Jul-20 14:33N 40°38' W 074°08'0 0.0
2016-Jul-20 13:33N 40°38' W 074°08'0 0.0
2016-Jul-20 12:34N 40°38' W 074°08'0 0.0
2016-Jul-20 11:34N 40°38' W 074°08'0 0.0
2016-Jul-20 10:33N 40°38' W 074°08'0 0.0
2016-Jul-20 09:34N 40°38' W 074°08'0 0.0
2016-Jul-20 08:33N 40°38' W 074°08'0 0.0
2016-Jul-20 07:34N 40°38' W 074°08'0 0.0
2016-Jul-20 06:34N 40°38' W 074°08'6 5.6
2016-Jul-20 05:34N 40°42' W 074°02'6 5.4
2016-Jul-20 04:32N 40°39' W 074°08'3 2.7
2016-Jul-20 03:33N 40°39' W 074°11'0 0.0
2016-Jul-20 02:13N 40°39' W 074°11'1 0.3
2016-Jul-19 22:32N 40°38' W 074°12'5 4.8
2016-Jul-19 21:31N 40°42' W 074°09'0 0.2
2016-Jul-19 20:23N 40°42' W 074°09'3 1.9
2016-Jul-19 18:31N 40°38' W 074°08'0 0.0
2016-Jul-19 17:31N 40°38' W 074°08'0 0.0
2016-Jul-19 16:25N 40°38' W 074°08'0 0.0
2016-Jul-19 14:14N 40°38' W 074°08'0 0.0
2016-Jul-19 09:16N 40°38' W 074°08'0 0.0
2016-Jul-19 08:28N 40°38' W 074°08'0 0.0
2016-Jul-19 07:28N 40°38' W 074°08'0 0.0
2016-Jul-19 06:10N 40°38' W 074°08'0 0.0
2016-Jul-19 04:10N 40°38' W 074°08'0 0.0
2016-Jul-19 03:28N 40°38' W 074°08'3 3.6
2016-Jul-19 02:30N 40°38' W 074°12'2 1.1
2016-Jul-19 00:24N 40°38' W 074°09'2 0.3
2016-Jul-18 17:33N 40°39' W 074°06'1 1.0
2016-Jul-18 16:33N 40°39' W 074°05'3 2.3
2016-Jul-18 15:25N 40°37' W 074°03'3 2.8
2016-Jul-18 14:31N 40°39' W 074°02'0 0.0
2016-Jul-18 13:31N 40°39' W 074°02'0 0.1
2016-Jul-18 12:33N 40°39' W 074°01'1 1.0
2016-Jul-18 11:32N 40°40' W 074°00'4 4.3
2016-Jul-18 10:33N 40°39' W 074°06'2 0.7
2016-Jul-18 08:29N 40°38' W 074°08'3 3.0
2016-Jul-18 07:21N 40°38' W 074°12'3 1.9
2016-Jul-18 05:33N 40°39' W 074°08'6 6.3
2016-Jul-18 04:33N 40°45' W 074°05'4 1.8
2016-Jul-18 02:10N 40°48' W 074°03'2 3.8
2016-Jul-18 01:33N 40°47' W 074°05'3 2.9
2016-Jul-18 00:33N 40°44' W 074°06'2 1.6
2016-Jul-17 23:22N 40°43' W 074°07'1 1.3
2016-Jul-17 22:33N 40°42' W 074°07'3 0.5
2016-Jul-17 16:29N 40°39' W 074°07'2 2.1
2016-Jul-17 15:33N 40°39' W 074°05'1 1.3
2016-Jul-17 14:28N 40°38' W 074°04'3 0.5
2016-Jul-17 08:23N 40°38' W 074°08'0 0.0
2016-Jul-17 07:29N 40°38' W 074°08'0 0.0
2016-Jul-17 06:29N 40°38' W 074°08'3 1.4
2016-Jul-17 04:06N 40°38' W 074°12'3 5.0
2016-Jul-17 03:33N 40°39' W 074°09'4 3.7
2016-Jul-17 02:22N 40°37' W 074°03'4 0.5
2016-Jul-16 19:24N 40°38' W 074°08'  

Dump ship's entire track history